Time;durP1;ratioP1;P1;durP2;ratioP2;P2;SDS_P1;SDS_P2;PMS_P1;PMS_P2;Temp;Humidity;BMP_temperature;BMP_pressure;BME280_temperature;BME280_humidity;BME280_pressure;Samples;Min_cycle;Max_cycle;Signal;HPM_P1;HPM_P2
2021/12/18 00:02:04;;;;;;;10.93;7.47;;;;;;;2.35;75.36;99358.03;6130048;28;20619;-89
2021/12/18 00:05:07;;;;;;;11.83;7.77;;;;;;;2.33;75.48;99359.81;6126009;28;20647;-89
2021/12/18 00:08:10;;;;;;;11.70;7.40;;;;;;;2.31;75.63;99357.22;6129334;28;20650;-89
2021/12/18 00:11:13;;;;;;;11.70;7.63;;;;;;;2.31;75.67;99369.38;6117505;28;20223;-89
2021/12/18 00:14:15;;;;;;;12.70;7.60;;;;;;;2.36;75.32;99363.22;6136641;28;20250;-89
2021/12/18 00:17:17;;;;;;;12.13;7.40;;;;;;;2.38;75.00;99361.44;6152133;28;20434;-90
2021/12/18 00:20:20;;;;;;;12.13;6.93;;;;;;;2.40;74.99;99382.22;6135999;28;20234;-89
2021/12/18 00:23:22;;;;;;;10.93;7.50;;;;;;;2.41;74.60;99378.72;6134906;28;20294;-89
2021/12/18 00:26:24;;;;;;;11.33;7.47;;;;;;;2.42;75.23;99388.28;6136208;28;20265;-89
2021/12/18 00:29:26;;;;;;;13.33;8.70;;;;;;;2.38;75.24;99391.84;6136259;28;20294;-89
2021/12/18 00:32:28;;;;;;;14.07;8.80;;;;;;;2.34;75.54;99395.38;6134412;28;20222;-88
2021/12/18 00:35:32;;;;;;;13.13;8.90;;;;;;;2.36;75.29;99393.63;6122810;28;20246;-88
2021/12/18 00:38:35;;;;;;;13.10;9.63;;;;;;;2.39;75.82;99383.16;6119806;28;20231;-88
2021/12/18 00:41:59;;;;;;;13.73;9.70;;;;;;;2.41;75.87;99389.16;6103219;29;20239;-89
2021/12/18 00:44:59;;;;;;;13.17;9.83;;;;;;;2.39;75.76;99378.78;6151123;28;20645;-88
2021/12/18 00:48:01;;;;;;;14.93;10.03;;;;;;;2.42;76.08;99380.47;6135377;28;20248;-89
2021/12/18 00:51:03;;;;;;;15.93;9.83;;;;;;;2.42;75.91;99370.91;6101873;28;20288;-89
2021/12/18 00:54:06;;;;;;;15.50;10.77;;;;;;;2.38;76.08;99357.97;6124374;28;20285;-89
2021/12/18 00:57:08;;;;;;;14.97;9.40;;;;;;;2.41;75.89;99361.34;6113122;28;20213;-89
2021/12/18 01:00:13;;;;;;;14.60;9.67;;;;;;;2.43;75.57;99380.44;6111375;28;20297;-88
2021/12/18 01:03:18;;;;;;;14.60;8.97;;;;;;;2.39;75.81;99367.50;6111315;28;20229;-89
2021/12/18 01:06:22;;;;;;;14.33;9.53;;;;;;;2.38;75.95;99356.22;6075434;29;20232;-88
2021/12/18 01:09:42;;;;;;;15.50;9.47;;;;;;;2.36;76.00;99372.78;6095629;28;20301;-89
2021/12/18 01:12:47;;;;;;;15.10;8.67;;;;;;;2.41;76.03;99376.13;6113418;28;20230;-88
2021/12/18 01:15:53;;;;;;;11.67;8.33;;;;;;;2.38;75.92;99379.69;6088683;29;20231;-89
2021/12/18 01:25:27;;;;;;;11.40;8.13;;;;;;;2.42;75.62;99372.63;6111341;28;20267;-89
2021/12/18 01:28:30;;;;;;;12.60;8.30;;;;;;;2.43;75.13;99369.16;6122317;28;20234;-89
2021/12/18 01:31:32;;;;;;;12.33;8.50;;;;;;;2.44;75.49;99370.88;6133218;28;20294;-89
2021/12/18 01:34:35;;;;;;;12.47;8.23;;;;;;;2.45;75.45;99372.59;6133839;28;20234;-89
2021/12/18 01:37:37;;;;;;;11.93;8.33;;;;;;;2.47;75.51;99376.03;6130391;28;20377;-88
2021/12/18 01:40:40;;;;;;;10.83;7.77;;;;;;;2.46;75.69;99385.59;6126167;28;20243;-89
2021/12/18 01:53:42;;;;;;;13.77;8.47;;;;;;;2.48;74.99;99388.16;6134225;28;20242;-88
2021/12/18 01:56:45;;;;;;;12.70;8.47;;;;;;;2.49;75.13;99389.88;6134052;28;20238;-89
2021/12/18 01:59:48;;;;;;;12.50;8.20;;;;;;;2.49;74.89;99395.97;6117998;28;20235;-88
2021/12/18 02:02:50;;;;;;;12.50;8.53;;;;;;;2.47;75.06;99389.91;6133263;28;20232;-89
2021/12/18 02:05:53;;;;;;;13.40;8.47;;;;;;;2.51;75.27;99403.72;6107209;28;20268;-89
2021/12/18 02:08:55;;;;;;;12.43;8.77;;;;;;;2.50;75.17;99404.59;6129125;28;20235;-89
2021/12/18 02:11:59;;;;;;;11.53;7.67;;;;;;;2.51;74.71;99414.13;6126893;28;20612;-89
2021/12/18 02:21:45;;;;;;;12.47;8.60;;;;;;;2.47;75.18;99396.88;6109524;28;20236;-89
2021/12/18 02:24:48;;;;;;;12.50;8.30;;;;;;;2.48;75.24;99407.25;6146232;28;20281;-89
2021/12/18 02:27:52;;;;;;;15.03;9.27;;;;;;;2.50;74.82;99402.00;6133939;28;20243;-89
2021/12/18 02:30:57;;;;;;;10.87;7.80;;;;;;;2.50;75.41;99399.38;6126723;28;20236;-89
2021/12/18 02:33:59;;;;;;;11.80;8.43;;;;;;;2.51;74.92;99407.19;6120407;28;20234;-89
2021/12/18 02:37:05;;;;;;;12.53;7.90;;;;;;;2.52;75.17;99402.84;6111286;28;20245;-90
2021/12/18 02:43:10;;;;;;;15.83;9.53;;;;;;;2.52;74.96;99410.66;6117691;28;20296;-88
2021/12/18 02:46:17;;;;;;;12.13;8.30;;;;;;;2.50;75.16;99422.84;6133627;28;20325;-88
2021/12/18 02:49:19;;;;;;;14.30;9.10;;;;;;;2.46;75.26;99413.38;6122138;28;20723;-90
2021/12/18 02:52:28;;;;;;;18.23;9.47;;;;;;;2.44;75.64;99421.22;6096683;28;20230;-89
2021/12/18 02:55:30;;;;;;;15.43;9.37;;;;;;;2.43;75.35;99406.47;6091505;29;20236;-89
2021/12/18 02:58:37;;;;;;;15.00;9.80;;;;;;;2.47;75.19;99420.31;6101650;28;20298;-89
2021/12/18 03:01:40;;;;;;;14.57;10.57;;;;;;;2.44;75.28;99415.16;6108916;28;20239;-90
2021/12/18 03:04:46;;;;;;;13.87;9.73;;;;;;;2.40;75.71;99401.31;6108873;28;20243;-89
2021/12/18 03:07:53;;;;;;;14.37;10.20;;;;;;;2.41;75.68;99412.59;6101596;29;20276;-89
2021/12/18 03:21:54;;;;;;;14.57;9.90;;;;;;;2.34;76.16;99422.31;6122192;28;20236;-89
2021/12/18 03:24:32;;;;;;;13.67;9.27;;;;;;;2.34;76.48;99435.31;6110344;28;20716;-89
2021/12/18 03:27:35;;;;;;;14.17;9.97;;;;;;;2.35;76.15;99433.59;6131263;28;20677;-89
2021/12/18 03:30:37;;;;;;;15.30;9.93;;;;;;;2.34;75.67;99432.72;6132879;28;20233;-89
2021/12/18 03:33:39;;;;;;;17.43;11.37;;;;;;;2.32;75.87;99429.28;6129439;28;20231;-89
2021/12/18 03:36:42;;;;;;;14.30;9.17;;;;;;;2.31;76.04;99430.16;6110176;28;20233;-89
2021/12/18 03:39:44;;;;;;;20.43;9.97;;;;;;;2.30;76.31;99420.63;6131238;28;20234;-89
2021/12/18 03:42:47;;;;;;;14.50;9.20;;;;;;;2.32;76.61;99425.81;6124864;28;20296;-88
2021/12/18 03:45:49;;;;;;;14.53;9.47;;;;;;;2.33;76.10;99419.72;6123173;28;20257;-89
2021/12/18 03:48:51;;;;;;;12.73;9.90;;;;;;;2.34;76.04;99424.91;6092849;28;20228;-89
2021/12/18 03:51:54;;;;;;;16.77;10.33;;;;;;;2.35;76.22;99425.75;6107479;28;20360;-89
2021/12/18 03:54:59;;;;;;;14.93;10.57;;;;;;;2.35;76.29;99417.94;6108330;28;20278;-88
2021/12/18 03:58:01;;;;;;;14.90;9.83;;;;;;;2.34;76.27;99416.22;6108334;28;20246;-89
2021/12/18 04:01:03;;;;;;;14.30;9.47;;;;;;;2.33;76.23;99412.75;6123076;28;20734;-88
2021/12/18 04:04:05;;;;;;;12.80;9.93;;;;;;;2.32;76.53;99423.22;6103312;28;20641;-88
2021/12/18 04:07:08;;;;;;;17.37;10.83;;;;;;;2.33;76.68;99422.31;6097796;28;20739;-89
2021/12/18 04:10:14;;;;;;;16.43;10.53;;;;;;;2.29;76.81;99429.34;6109407;28;20379;-90
2021/12/18 04:13:16;;;;;;;17.63;10.47;;;;;;;2.28;76.60;99422.44;6124285;28;20250;-89
2021/12/18 04:16:18;;;;;;;14.97;10.53;;;;;;;2.29;76.19;99423.28;6123289;28;20702;-89
2021/12/18 04:19:20;;;;;;;15.77;10.70;;;;;;;2.29;76.50;99424.16;6107713;29;20330;-89
2021/12/18 04:22:22;;;;;;;16.57;10.83;;;;;;;2.28;76.75;99429.38;6109435;28;20270;-90
2021/12/18 04:25:24;;;;;;;16.57;10.60;;;;;;;2.26;76.41;99420.72;6107962;28;20262;-88
2021/12/18 04:28:26;;;;;;;15.73;10.23;;;;;;;2.26;76.61;99431.16;6107210;28;20243;-89
2021/12/18 04:31:28;;;;;;;12.13;9.30;;;;;;;2.25;76.70;99422.47;6107726;28;20609;-90
2021/12/18 04:34:30;;;;;;;14.77;10.30;;;;;;;2.21;76.86;99424.28;6111118;28;20227;-90
2021/12/18 04:37:33;;;;;;;13.13;9.70;;;;;;;2.21;76.59;99426.00;6108836;28;20322;-88
2021/12/18 04:40:35;;;;;;;15.27;10.13;;;;;;;2.23;76.55;99425.09;6102105;29;20250;-89
2021/12/18 04:43:38;;;;;;;15.80;9.67;;;;;;;2.28;76.29;99432.00;6070768;28;20708;-90
2021/12/18 04:46:40;;;;;;;13.97;9.50;;;;;;;2.25;76.06;99435.50;6107807;28;20778;-91
2021/12/18 04:49:42;;;;;;;14.60;9.20;;;;;;;2.28;75.73;99445.88;6122526;28;20235;-89
2021/12/18 04:52:44;;;;;;;13.53;9.20;;;;;;;2.28;75.93;99453.69;6107963;28;20326;-89
2021/12/18 04:55:47;;;;;;;12.47;9.03;;;;;;;2.27;75.91;99448.50;6109423;28;20325;-89
2021/12/18 04:58:49;;;;;;;13.37;8.50;;;;;;;2.29;75.86;99451.94;6099118;29;20236;-88
2021/12/18 05:01:52;;;;;;;12.30;8.63;;;;;;;2.28;75.96;99458.03;6072964;29;20237;-89
2021/12/18 05:04:54;;;;;;;13.37;9.17;;;;;;;2.29;75.71;99449.34;6110207;28;20339;-89
2021/12/18 05:07:56;;;;;;;12.30;8.80;;;;;;;2.28;75.78;99452.81;6111930;28;20232;-88
2021/12/18 05:10:58;;;;;;;13.33;8.50;;;;;;;2.20;75.48;99459.00;6115710;28;20323;-89
2021/12/18 05:14:00;;;;;;;13.23;8.30;;;;;;;2.19;75.44;99465.13;6112177;28;20275;-89
2021/12/18 05:17:02;;;;;;;15.50;8.83;;;;;;;2.20;75.51;99469.44;6112296;28;20362;-89
2021/12/18 05:20:06;;;;;;;15.03;7.90;;;;;;;2.20;75.91;99473.78;6110898;28;20602;-88
2021/12/18 05:23:08;;;;;;;13.73;8.97;;;;;;;2.21;75.56;99467.69;6111758;28;20264;-88
2021/12/18 05:26:10;;;;;;;13.70;9.30;;;;;;;2.22;75.52;99474.63;6111896;28;20241;-88
2021/12/18 05:29:12;;;;;;;13.47;9.03;;;;;;;2.20;75.93;99474.63;6103804;29;20722;-89
2021/12/18 05:32:14;;;;;;;12.30;8.60;;;;;;;2.14;75.98;99471.28;6109038;28;20250;-89
2021/12/18 05:35:17;;;;;;;12.87;8.53;;;;;;;2.13;75.94;99473.03;6096451;29;20778;-89
2021/12/18 05:38:19;;;;;;;11.37;8.63;;;;;;;2.12;75.86;99473.94;6122156;28;20221;-89
2021/12/18 05:41:21;;;;;;;13.30;8.20;;;;;;;2.08;75.73;99474.88;6125865;28;20289;-89
2021/12/18 05:44:25;;;;;;;10.80;7.70;;;;;;;2.06;75.63;99483.59;6127620;28;20738;-89
2021/12/18 05:47:27;;;;;;;11.47;8.30;;;;;;;2.02;75.95;99482.78;6110323;28;20234;-89
2021/12/18 05:50:29;;;;;;;11.37;8.07;;;;;;;2.02;75.23;99498.41;6125260;28;20239;-89
2021/12/18 05:53:33;;;;;;;13.20;8.40;;;;;;;2.04;75.08;99506.19;6110134;28;20732;-89
2021/12/18 05:56:35;;;;;;;15.70;8.83;;;;;;;2.06;74.96;99509.63;6110627;28;20260;-89
2021/12/18 05:59:37;;;;;;;13.10;8.40;;;;;;;2.03;75.05;99507.06;6111337;28;20837;-89
2021/12/18 06:02:39;;;;;;;13.50;9.00;;;;;;;2.03;75.64;99510.53;6110495;28;20725;-89
2021/12/18 06:05:41;;;;;;;11.93;8.23;;;;;;;2.04;75.22;99507.06;6108498;28;20240;-90
2021/12/18 06:08:43;;;;;;;19.50;9.17;;;;;;;2.06;75.19;99513.09;6117072;28;20239;-89
2021/12/18 06:11:45;;;;;;;10.97;7.70;;;;;;;2.08;74.92;99506.13;6104684;28;20235;-90
2021/12/18 06:14:47;;;;;;;12.63;7.97;;;;;;;2.07;75.07;99501.81;6110492;28;20326;-89
2021/12/18 06:17:49;;;;;;;15.93;8.90;;;;;;;2.04;75.32;99504.44;6109360;28;20715;-89
2021/12/18 06:20:51;;;;;;;11.97;8.90;;;;;;;2.02;75.50;99503.59;6126904;28;20235;-89
2021/12/18 06:23:55;;;;;;;12.63;8.47;;;;;;;2.00;75.07;99500.16;6125655;28;20323;-89
2021/12/18 06:26:58;;;;;;;13.23;8.50;;;;;;;1.97;75.58;99500.25;6108285;28;20239;-89
2021/12/18 06:30:02;;;;;;;12.40;8.17;;;;;;;1.95;75.08;99493.34;6110782;28;20231;-89
2021/12/18 06:33:04;;;;;;;13.47;8.20;;;;;;;1.98;75.44;99496.75;6085161;29;20645;-88
2021/12/18 06:36:06;;;;;;;14.33;9.10;;;;;;;1.93;75.26;99495.97;6127320;28;20304;-89
2021/12/18 06:39:08;;;;;;;14.50;10.07;;;;;;;1.87;75.94;99493.47;6116200;28;20307;-89
2021/12/18 06:42:10;;;;;;;13.33;8.67;;;;;;;1.81;76.19;99498.75;6132741;28;20226;-89
2021/12/18 06:45:12;;;;;;;12.60;9.13;;;;;;;1.77;76.52;99499.69;6121468;28;20340;-89
2021/12/18 06:48:14;;;;;;;14.33;9.10;;;;;;;1.77;76.44;99502.31;6121856;28;20214;-89
2021/12/18 06:51:18;;;;;;;13.47;8.87;;;;;;;1.78;76.15;99498.81;6132774;28;20212;-89
2021/12/18 06:54:20;;;;;;;13.00;8.93;;;;;;;1.72;76.16;99491.94;6131814;28;20278;-91
2021/12/18 06:57:22;;;;;;;16.07;10.50;;;;;;;1.73;76.08;99503.22;6131493;28;20229;-89
2021/12/18 07:00:26;;;;;;;16.30;8.47;;;;;;;1.72;76.29;99499.75;6110988;28;20231;-89
2021/12/18 07:03:29;;;;;;;12.40;8.80;;;;;;;1.74;76.39;99498.00;6143384;28;20309;-89
2021/12/18 07:06:32;;;;;;;15.37;8.90;;;;;;;1.77;75.98;99497.97;6118444;28;20246;-90
2021/12/18 07:09:34;;;;;;;15.53;9.93;;;;;;;1.80;75.59;99510.91;6114547;28;20222;-88
2021/12/18 07:12:36;;;;;;;15.33;9.00;;;;;;;1.82;76.00;99503.06;6119084;28;20233;-89
2021/12/18 07:15:39;;;;;;;12.53;8.30;;;;;;;1.85;75.27;99506.50;6132595;28;20235;-88
2021/12/18 07:18:41;;;;;;;15.03;9.57;;;;;;;1.91;75.34;99500.31;6129502;28;20309;-89
2021/12/18 07:21:43;;;;;;;12.17;8.13;;;;;;;1.94;75.32;99505.50;6132986;28;20241;-89
2021/12/18 07:24:45;;;;;;;13.13;7.87;;;;;;;1.91;75.09;99500.31;6131041;28;20324;-89
2021/12/18 07:27:47;;;;;;;15.20;9.40;;;;;;;1.86;75.46;99496.94;6131477;28;20258;-91
2021/12/18 07:30:49;;;;;;;15.00;9.60;;;;;;;1.83;75.56;99500.44;6113655;28;20706;-89
2021/12/18 07:33:51;;;;;;;13.20;9.30;;;;;;;1.85;75.36;99490.03;6134781;28;20235;-89
2021/12/18 07:36:54;;;;;;;15.07;8.90;;;;;;;1.90;75.70;99492.56;6135103;28;20318;-89
2021/12/18 07:39:56;;;;;;;15.13;10.20;;;;;;;1.91;75.85;99495.13;6130720;28;20242;-88
2021/12/18 07:42:59;;;;;;;14.33;9.83;;;;;;;1.88;75.80;99489.97;6132716;28;20234;-88
2021/12/18 07:46:01;;;;;;;14.50;9.00;;;;;;;1.89;76.10;99494.31;6129745;28;20356;-90
2021/12/18 07:49:04;;;;;;;14.63;9.37;;;;;;;1.90;75.76;99495.16;6107785;28;20247;-89
2021/12/18 07:52:07;;;;;;;13.47;9.20;;;;;;;1.88;75.97;99500.41;6108068;28;20239;-88
2021/12/18 07:55:09;;;;;;;16.00;10.13;;;;;;;1.90;75.93;99502.97;6123648;28;20245;-88
2021/12/18 07:58:11;;;;;;;13.07;9.57;;;;;;;1.93;75.35;99492.50;6141066;28;20306;-89
2021/12/18 08:01:13;;;;;;;14.20;8.90;;;;;;;1.93;75.64;99501.16;6101459;28;20769;-90
2021/12/18 08:04:16;;;;;;;13.53;8.43;;;;;;;1.94;74.96;99492.47;6120110;28;20230;-88
2021/12/18 08:07:18;;;;;;;11.80;8.77;;;;;;;1.92;75.48;99496.84;6125435;28;20243;-89
2021/12/18 08:10:20;;;;;;;10.73;8.70;;;;;;;1.92;74.60;99504.66;6127945;28;20274;-89
2021/12/18 08:13:22;;;;;;;16.60;9.37;;;;;;;1.98;74.70;99517.59;6136464;28;20331;-90
2021/12/18 08:16:24;;;;;;;13.73;9.37;;;;;;;2.03;74.32;99507.94;6107581;28;20706;-87
2021/12/18 08:19:26;;;;;;;11.77;8.50;;;;;;;2.04;74.45;99507.06;6106800;28;20583;-89
2021/12/18 08:22:28;;;;;;;12.47;9.27;;;;;;;2.10;74.52;99514.75;6107484;28;20236;-89
2021/12/18 08:25:32;;;;;;;12.70;9.20;;;;;;;2.15;74.26;99501.66;6107010;28;20605;-89
2021/12/18 08:28:34;;;;;;;10.60;8.67;;;;;;;2.21;74.07;99506.75;6107843;29;20247;-90
2021/12/18 08:31:36;;;;;;;15.23;8.57;;;;;;;2.27;73.97;99492.78;6115185;29;20253;-89
2021/12/18 08:34:39;;;;;;;13.03;8.93;;;;;;;2.22;73.72;99493.72;6109223;28;20273;-89
2021/12/18 08:37:41;;;;;;;13.57;8.90;;;;;;;2.18;74.27;99494.66;6152013;28;20796;-90
2021/12/18 08:40:43;;;;;;;14.77;8.93;;;;;;;2.11;73.91;99493.03;6134351;28;20793;-90
2021/12/18 08:43:45;;;;;;;10.60;8.30;;;;;;;2.13;74.11;99491.28;6135253;28;20243;-88
2021/12/18 08:46:47;;;;;;;15.07;8.57;;;;;;;2.18;73.90;99504.22;6136135;28;20226;-89
2021/12/18 08:49:49;;;;;;;11.20;7.90;;;;;;;2.22;73.92;99498.91;6134689;28;20537;-89
2021/12/18 08:52:51;;;;;;;12.80;8.30;;;;;;;2.28;73.45;99507.53;6140913;28;20234;-89
2021/12/18 08:55:53;;;;;;;13.77;8.20;;;;;;;2.31;73.51;99491.81;6134607;28;20729;-88
2021/12/18 08:58:56;;;;;;;12.77;8.03;;;;;;;2.43;72.73;99499.41;6134046;28;20230;-89
2021/12/18 09:01:58;;;;;;;11.17;8.00;;;;;;;2.53;72.58;99493.16;6094646;28;20231;-88
2021/12/18 09:05:00;;;;;;;9.90;6.50;;;;;;;2.63;72.14;99494.69;6100470;29;20379;-89
2021/12/18 09:08:02;;;;;;;11.30;8.00;;;;;;;2.74;71.62;99497.09;6095786;28;20249;-91
2021/12/18 09:11:04;;;;;;;9.20;7.30;;;;;;;2.81;71.19;99504.75;6110022;28;20314;-89
2021/12/18 09:14:06;;;;;;;10.30;7.70;;;;;;;2.88;71.35;99508.13;6111564;28;20742;-89
2021/12/18 09:17:09;;;;;;;9.43;6.63;;;;;;;2.94;71.27;99492.34;6082119;29;20317;-89
2021/12/18 09:20:12;;;;;;;10.87;7.20;;;;;;;3.06;70.61;99496.44;6096839;28;20315;-89
2021/12/18 09:23:17;;;;;;;11.03;6.93;;;;;;;3.15;70.36;99502.31;6125937;28;20227;-89
2021/12/18 09:26:20;;;;;;;9.80;6.63;;;;;;;3.15;70.40;99501.47;6111118;28;20361;-89
2021/12/18 09:29:22;;;;;;;9.07;6.67;;;;;;;3.20;70.25;99495.25;6110439;28;20818;-91
2021/12/18 09:32:24;;;;;;;9.20;6.40;;;;;;;3.36;69.02;99490.56;6111269;28;20267;-89
2021/12/18 09:35:26;;;;;;;11.43;6.63;;;;;;;3.48;68.95;99487.69;6095910;29;20239;-89
2021/12/18 09:38:28;;;;;;;8.20;6.53;;;;;;;3.46;68.83;99481.63;6122357;28;20228;-89
2021/12/18 09:41:31;;;;;;;7.77;6.00;;;;;;;3.49;69.02;99494.63;6108589;28;20356;-90
2021/12/18 09:44:36;;;;;;;8.70;5.97;;;;;;;3.58;68.46;99493.56;6111536;28;20245;-89
2021/12/18 09:47:40;;;;;;;9.50;6.17;;;;;;;3.68;67.41;99474.16;6127220;28;20225;-89
2021/12/18 09:50:44;;;;;;;8.53;5.73;;;;;;;3.78;66.99;99460.00;6127173;28;20643;-90
2021/12/18 09:53:46;;;;;;;9.57;6.10;;;;;;;3.93;66.86;99462.22;6109763;28;20385;-89
2021/12/18 09:56:48;;;;;;;9.97;6.40;;;;;;;4.01;66.78;99462.88;6110255;28;20344;-88
2021/12/18 09:59:52;;;;;;;7.50;5.67;;;;;;;4.13;66.56;99459.09;6110484;28;20308;-88
2021/12/18 10:02:54;;;;;;;8.70;6.17;;;;;;;4.18;65.91;99454.63;6087973;29;20276;-90
2021/12/18 10:05:56;;;;;;;6.07;4.97;;;;;;;4.21;65.67;99444.06;6120029;28;20293;-89
2021/12/18 10:08:58;;;;;;;8.00;5.50;;;;;;;4.19;66.38;99438.06;6125689;28;20242;-90
2021/12/18 10:12:04;;;;;;;6.80;5.73;;;;;;;4.31;65.44;99432.47;6101462;28;20321;-89
2021/12/18 10:15:16;;;;;;;9.00;5.97;;;;;;;4.24;65.31;99430.94;6148602;28;20725;-89
2021/12/18 10:18:18;;;;;;;9.10;5.57;;;;;;;4.27;65.76;99436.09;6124971;28;20270;-89
2021/12/18 10:21:23;;;;;;;6.73;5.27;;;;;;;4.30;65.49;99417.69;6112674;28;20320;-89
2021/12/18 10:24:27;;;;;;;8.67;5.57;;;;;;;4.27;64.79;99419.56;6133053;28;20573;-90
2021/12/18 10:27:29;;;;;;;8.40;5.47;;;;;;;4.27;64.44;99417.78;6132857;28;20223;-89
2021/12/18 10:30:31;;;;;;;8.37;5.77;;;;;;;4.30;65.23;99415.06;6132885;28;20720;-89
2021/12/18 10:33:35;;;;;;;7.37;5.10;;;;;;;4.33;64.94;99414.16;6131998;28;20311;-89
2021/12/18 10:36:37;;;;;;;10.03;5.80;;;;;;;4.38;65.18;99413.13;6126061;28;20361;-89
2021/12/18 10:39:54;;;;;;;8.43;6.03;;;;;;;4.42;64.61;99419.97;6112266;28;20336;-90
2021/12/18 10:42:56;;;;;;;8.13;5.97;;;;;;;4.42;65.37;99416.50;6101356;29;20236;-90
2021/12/18 10:45:59;;;;;;;10.53;5.97;;;;;;;4.43;65.12;99405.16;6099921;29;20235;-89
2021/12/18 10:49:03;;;;;;;8.00;5.50;;;;;;;4.45;65.00;99409.44;6120096;28;20258;-90
2021/12/18 10:52:05;;;;;;;8.90;5.60;;;;;;;4.24;65.09;99394.34;6105606;29;20245;-88
2021/12/18 10:55:07;;;;;;;7.23;5.80;;;;;;;4.00;65.85;99385.41;6101457;29;20714;-89
2021/12/18 10:58:36;;;;;;;8.10;6.07;;;;;;;3.99;66.75;99385.47;6069905;29;20250;-89
2021/12/18 11:01:50;;;;;;;8.97;6.10;;;;;;;4.08;66.02;99380.84;6099581;29;20322;-89
2021/12/18 11:04:52;;;;;;;9.17;6.03;;;;;;;4.18;65.71;99357.09;6085278;29;20730;-89
2021/12/18 11:08:12;;;;;;;9.13;5.83;;;;;;;4.23;65.38;99350.81;6118842;28;20288;-89
2021/12/18 11:14:48;;;;;;;9.33;5.63;;;;;;;4.20;65.46;99323.91;6118089;28;20413;-89
2021/12/18 11:17:51;;;;;;;10.23;5.83;;;;;;;4.16;65.56;99312.72;6115335;28;20323;-89
2021/12/18 11:20:53;;;;;;;8.00;5.80;;;;;;;4.13;65.17;99325.00;6112221;28;20246;-90
2021/12/18 11:24:06;;;;;;;8.83;5.60;;;;;;;4.20;64.76;99311.72;6099591;29;20698;-89
2021/12/18 11:27:11;;;;;;;6.47;5.57;;;;;;;4.21;65.78;99310.81;6102014;28;20244;-89
2021/12/18 11:30:17;;;;;;;8.93;5.80;;;;;;;4.27;65.11;99313.25;6130319;28;20268;-90
2021/12/18 11:33:20;;;;;;;7.67;5.20;;;;;;;4.30;64.91;99307.94;6131699;28;20309;-89
2021/12/18 11:36:22;;;;;;;7.57;4.77;;;;;;;4.38;63.84;99305.97;6126099;28;20230;-89
2021/12/18 11:39:29;;;;;;;6.23;4.57;;;;;;;4.43;64.50;99304.06;6124765;28;20230;-90
2021/12/18 11:42:33;;;;;;;6.57;4.60;;;;;;;4.40;63.65;99298.06;6123593;28;20234;-89
2021/12/18 11:45:37;;;;;;;6.23;4.73;;;;;;;4.47;63.73;99285.69;6106755;28;20329;-88
2021/12/18 11:48:54;;;;;;;7.37;5.17;;;;;;;4.51;63.45;99284.66;6124682;28;20561;-89
2021/12/18 11:52:05;;;;;;;9.87;4.87;;;;;;;4.53;62.89;99278.50;6107616;28;20662;-89
2021/12/18 11:55:09;;;;;;;6.37;4.33;;;;;;;4.55;62.80;99295.00;6120198;28;20229;-89
2021/12/18 11:58:22;;;;;;;7.60;4.77;;;;;;;4.58;63.48;99291.44;6125090;28;20234;-89
2021/12/18 12:01:30;;;;;;;6.87;5.33;;;;;;;4.59;62.68;99286.16;6128414;28;20240;-90
2021/12/18 12:05:01;;;;;;;8.43;5.07;;;;;;;4.57;63.43;99284.50;6126192;28;20237;-89
2021/12/18 12:08:39;;;;;;;7.67;4.87;;;;;;;4.59;62.72;99273.06;6135362;28;20572;-89
2021/12/18 12:11:51;;;;;;;7.20;5.27;;;;;;;4.56;63.01;99275.81;6135739;28;20233;-90
2021/12/18 12:15:13;;;;;;;7.43;4.80;;;;;;;4.63;63.33;99261.63;6116868;28;20225;-89
2021/12/18 12:18:15;;;;;;;8.97;5.10;;;;;;;4.54;62.51;99269.75;6131202;28;20263;-90
2021/12/18 12:21:38;;;;;;;8.53;5.47;;;;;;;4.48;63.71;99276.94;6112698;28;20242;-89
2021/12/18 12:24:59;;;;;;;7.87;5.17;;;;;;;4.44;63.03;99263.97;6112933;28;20227;-89
2021/12/18 12:28:12;;;;;;;7.00;5.47;;;;;;;4.36;63.89;99258.13;6103898;29;20238;-90
2021/12/18 12:31:15;;;;;;;6.07;4.80;;;;;;;4.39;63.49;99259.78;6089244;29;20694;-89
2021/12/18 12:34:26;;;;;;;9.20;5.87;;;;;;;4.40;63.07;99269.31;6139112;28;20303;-89
2021/12/18 12:37:40;;;;;;;9.77;5.30;;;;;;;4.43;63.81;99262.25;6146118;28;20838;-90
2021/12/18 12:40:43;;;;;;;9.40;5.60;;;;;;;4.36;63.42;99258.13;6121198;28;20718;-89
2021/12/18 12:43:45;;;;;;;7.07;5.10;;;;;;;4.40;64.25;99256.25;6126573;28;20278;-89
2021/12/18 12:46:47;;;;;;;7.67;5.10;;;;;;;4.41;63.74;99255.34;6088077;29;20239;-89
2021/12/18 12:49:53;;;;;;;8.33;5.50;;;;;;;4.47;64.20;99242.09;6113205;28;20250;-89
2021/12/18 12:53:00;;;;;;;7.27;5.60;;;;;;;4.33;64.07;99250.34;6112102;28;20366;-89
2021/12/18 12:56:14;;;;;;;8.17;5.60;;;;;;;4.30;64.61;99241.75;6130003;28;20684;-89
2021/12/18 12:59:24;;;;;;;8.33;5.30;;;;;;;4.17;64.47;99240.41;6111315;28;20724;-89
2021/12/18 13:02:29;;;;;;;9.03;5.80;;;;;;;4.16;64.95;99242.16;6074337;29;20356;-89
2021/12/18 13:05:31;;;;;;;7.47;5.50;;;;;;;4.12;64.77;99239.69;6095454;29;20720;-89
2021/12/18 13:08:37;;;;;;;8.33;5.43;;;;;;;4.11;64.81;99236.22;6109040;28;20282;-89
2021/12/18 13:11:40;;;;;;;8.53;5.47;;;;;;;4.13;64.47;99229.19;6127467;28;20272;-88
2021/12/18 13:14:44;;;;;;;7.73;5.63;;;;;;;4.17;64.89;99222.13;6112251;28;20286;-88
2021/12/18 13:17:47;;;;;;;7.20;5.27;;;;;;;4.16;64.72;99226.50;6111955;28;20242;-90
2021/12/18 13:20:57;;;;;;;8.73;6.00;;;;;;;4.12;64.65;99232.69;6114438;28;20231;-89
2021/12/18 13:24:05;;;;;;;7.43;5.57;;;;;;;3.96;64.93;99221.00;6128692;28;20935;-90
2021/12/18 13:27:11;;;;;;;8.60;6.33;;;;;;;3.88;65.52;99212.53;6135477;28;20227;-89
2021/12/18 13:30:20;;;;;;;7.27;5.67;;;;;;;3.90;66.22;99211.56;6137179;28;20635;-89
2021/12/18 13:33:28;;;;;;;9.40;5.67;;;;;;;3.87;65.83;99223.88;6119282;28;20236;-89
2021/12/18 13:36:44;;;;;;;8.77;6.77;;;;;;;3.88;65.34;99218.63;6129538;28;20358;-89
2021/12/18 13:39:49;;;;;;;9.77;6.17;;;;;;;3.87;65.45;99214.28;6112432;28;20722;-89
2021/12/18 13:43:11;;;;;;;7.93;6.30;;;;;;;3.82;65.46;99205.72;6127872;28;20270;-89
2021/12/18 13:46:13;;;;;;;11.53;6.47;;;;;;;3.84;65.89;99205.69;6135969;28;20238;-89
2021/12/18 13:49:16;;;;;;;9.20;6.07;;;;;;;3.83;66.04;99210.03;6135133;28;20772;-90
2021/12/18 13:52:52;;;;;;;8.57;6.17;;;;;;;3.81;65.62;99198.78;6136870;28;20246;-89
2021/12/18 13:55:57;;;;;;;8.87;6.37;;;;;;;3.78;65.83;99187.59;6107982;28;20679;-90
2021/12/18 13:59:12;;;;;;;7.83;6.47;;;;;;;3.73;64.52;99179.88;6120357;28;20315;-89
2021/12/18 14:02:21;;;;;;;8.97;6.13;;;;;;;3.73;65.60;99161.59;6134892;28;20326;-90
2021/12/18 14:05:23;;;;;;;7.77;5.53;;;;;;;3.77;65.55;99141.47;6123989;28;20237;-88
2021/12/18 14:08:26;;;;;;;9.70;6.00;;;;;;;3.78;65.02;99156.25;6135085;28;20243;-92
2021/12/18 14:11:37;;;;;;;8.63;6.10;;;;;;;3.76;65.42;99151.06;6118176;28;20235;-89
2021/12/18 14:14:48;;;;;;;10.37;5.57;;;;;;;3.76;65.11;99148.47;6151772;28;20385;-89
2021/12/18 14:17:50;;;;;;;9.23;6.80;;;;;;;3.71;65.08;99159.03;6134875;28;20709;-89
2021/12/18 14:20:52;;;;;;;7.77;5.87;;;;;;;3.70;65.55;99164.28;6135727;28;20270;-89
2021/12/18 14:23:58;;;;;;;10.83;6.63;;;;;;;3.67;65.22;99167.88;6111538;28;20719;-89
2021/12/18 14:27:11;;;;;;;8.17;5.83;;;;;;;3.69;65.60;99165.22;6103060;29;20323;-88
2021/12/18 14:30:22;;;;;;;9.60;6.60;;;;;;;3.66;65.03;99173.97;6112145;28;20622;-89
2021/12/18 14:33:24;;;;;;;10.87;6.63;;;;;;;3.60;65.90;99160.22;6110422;28;20814;-91
2021/12/18 14:36:48;;;;;;;9.80;6.53;;;;;;;3.49;66.00;99155.34;6114823;28;20256;-90
2021/12/18 14:39:53;;;;;;;9.70;6.97;;;;;;;3.44;66.75;99162.44;6126639;28;20251;-89
2021/12/18 14:42:58;;;;;;;9.47;7.40;;;;;;;3.39;67.69;99177.38;6110150;28;20309;-89
2021/12/18 14:46:00;;;;;;;11.83;7.80;;;;;;;3.37;67.72;99168.72;6124028;28;20253;-89
2021/12/18 14:49:13;;;;;;;10.67;7.53;;;;;;;3.32;68.00;99173.19;6128882;29;20245;-89
2021/12/18 14:52:15;;;;;;;9.30;6.57;;;;;;;3.29;67.28;99168.91;6122451;28;20273;-88
2021/12/18 14:55:47;;;;;;;10.70;7.60;;;;;;;3.29;67.93;99165.47;6134331;28;20320;-90
2021/12/18 14:58:50;;;;;;;9.87;6.80;;;;;;;3.27;67.75;99155.06;6113058;28;20237;-89
2021/12/18 15:02:03;;;;;;;8.73;6.60;;;;;;;3.25;67.80;99154.25;6134385;28;20249;-88
2021/12/18 15:05:07;;;;;;;9.43;6.90;;;;;;;3.23;67.94;99135.19;6122045;28;20789;-89
2021/12/18 15:08:15;;;;;;;9.23;6.97;;;;;;;3.23;68.24;99110.84;6105459;28;20296;-89
2021/12/18 15:11:53;;;;;;;8.67;6.60;;;;;;;3.20;68.33;99130.03;6133612;28;20280;-89
2021/12/18 15:14:57;;;;;;;11.00;6.93;;;;;;;3.18;68.22;99131.00;6037728;29;20713;-89